sensor_id;sensor_type;location;lat;lon;timestamp;temperature;humidity
21302;DHT22;10810;48.270;9.996;2023-03-04T00:02:04;-0.20;99.90
21302;DHT22;10810;48.270;9.996;2023-03-04T00:04:31;0.70;99.90
21302;DHT22;10810;48.270;9.996;2023-03-04T00:06:58;0.70;99.90
21302;DHT22;10810;48.270;9.996;2023-03-04T00:09:26;-0.40;99.90
21302;DHT22;10810;48.270;9.996;2023-03-04T00:11:53;-0.30;99.90
21302;DHT22;10810;48.270;9.996;2023-03-04T00:14:22;-0.80;99.90
21302;DHT22;10810;48.270;9.996;2023-03-04T00:16:49;0.00;99.90
21302;DHT22;10810;48.270;9.996;2023-03-04T00:19:17;-1.70;99.90
21302;DHT22;10810;48.270;9.996;2023-03-04T00:21:44;-0.10;99.90
21302;DHT22;10810;48.270;9.996;2023-03-04T00:24:11;-0.20;99.90
21302;DHT22;10810;48.270;9.996;2023-03-04T00:26:38;-0.40;99.90
21302;DHT22;10810;48.270;9.996;2023-03-04T00:29:08;0.10;99.90
21302;DHT22;10810;48.270;9.996;2023-03-04T00:31:39;0.70;99.90
21302;DHT22;10810;48.270;9.996;2023-03-04T00:34:08;-0.50;99.90
21302;DHT22;10810;48.270;9.996;2023-03-04T00:36:36;-1.70;99.90
21302;DHT22;10810;48.270;9.996;2023-03-04T00:39:03;0.10;99.90
21302;DHT22;10810;48.270;9.996;2023-03-04T00:41:30;-1.90;99.90
21302;DHT22;10810;48.270;9.996;2023-03-04T00:44:02;-0.50;99.90
21302;DHT22;10810;48.270;9.996;2023-03-04T00:46:30;0.00;99.90
21302;DHT22;10810;48.270;9.996;2023-03-04T00:49:01;0.10;99.90
21302;DHT22;10810;48.270;9.996;2023-03-04T00:51:29;-0.30;99.90
21302;DHT22;10810;48.270;9.996;2023-03-04T00:54:01;0.50;99.90
21302;DHT22;10810;48.270;9.996;2023-03-04T00:56:36;-0.50;99.90
21302;DHT22;10810;48.270;9.996;2023-03-04T00:59:05;-1.40;99.90
21302;DHT22;10810;48.270;9.996;2023-03-04T01:01:43;-0.20;99.90
21302;DHT22;10810;48.270;9.996;2023-03-04T01:04:17;-1.60;99.90
21302;DHT22;10810;48.270;9.996;2023-03-04T01:06:46;-0.50;99.90
21302;DHT22;10810;48.270;9.996;2023-03-04T01:09:16;-0.50;99.90
21302;DHT22;10810;48.270;9.996;2023-03-04T01:11:51;-0.20;99.90
21302;DHT22;10810;48.270;9.996;2023-03-04T01:14:19;0.20;99.90
21302;DHT22;10810;48.270;9.996;2023-03-04T01:16:57;-1.80;99.90
21302;DHT22;10810;48.270;9.996;2023-03-04T01:19:31;-0.90;99.90
21302;DHT22;10810;48.270;9.996;2023-03-04T01:22:01;-0.40;99.90
21302;DHT22;10810;48.270;9.996;2023-03-04T01:24:34;-0.70;99.90
21302;DHT22;10810;48.270;9.996;2023-03-04T01:27:01;-0.70;99.90
21302;DHT22;10810;48.270;9.996;2023-03-04T01:29:30;-0.60;99.90
21302;DHT22;10810;48.270;9.996;2023-03-04T01:32:02;-0.40;99.90
21302;DHT22;10810;48.270;9.996;2023-03-04T01:34:41;0.00;99.90
21302;DHT22;10810;48.270;9.996;2023-03-04T01:37:17;-0.90;99.90
21302;DHT22;10810;48.270;9.996;2023-03-04T01:39:57;-0.20;99.90
21302;DHT22;10810;48.270;9.996;2023-03-04T01:42:32;-0.70;99.90
21302;DHT22;10810;48.270;9.996;2023-03-04T01:45:00;-0.50;99.90
21302;DHT22;10810;48.270;9.996;2023-03-04T01:47:30;-0.90;99.90
21302;DHT22;10810;48.270;9.996;2023-03-04T01:50:19;-0.90;99.90
21302;DHT22;10810;48.270;9.996;2023-03-04T01:53:19;-0.70;99.90
21302;DHT22;10810;48.270;9.996;2023-03-04T01:55:54;-0.80;99.90
21302;DHT22;10810;48.270;9.996;2023-03-04T01:59:04;-1.40;99.90
21302;DHT22;10810;48.270;9.996;2023-03-04T02:01:57;-0.80;99.90
21302;DHT22;10810;48.270;9.996;2023-03-04T02:04:49;-0.40;99.90
21302;DHT22;10810;48.270;9.996;2023-03-04T02:07:28;-0.90;99.90
21302;DHT22;10810;48.270;9.996;2023-03-04T02:10:31;-1.40;99.90
21302;DHT22;10810;48.270;9.996;2023-03-04T02:13:10;-1.60;99.90
21302;DHT22;10810;48.270;9.996;2023-03-04T02:15:51;-0.50;99.90
21302;DHT22;10810;48.270;9.996;2023-03-04T02:18:30;-0.50;99.90
21302;DHT22;10810;48.270;9.996;2023-03-04T02:21:24;-0.40;99.90
21302;DHT22;10810;48.270;9.996;2023-03-04T02:24:21;-0.90;99.90
21302;DHT22;10810;48.270;9.996;2023-03-04T02:27:04;-0.80;99.90
21302;DHT22;10810;48.270;9.996;2023-03-04T02:29:32;0.20;99.90
21302;DHT22;10810;48.270;9.996;2023-03-04T02:31:59;-0.60;99.90
21302;DHT22;10810;48.270;9.996;2023-03-04T02:34:28;-0.80;99.90
21302;DHT22;10810;48.270;9.996;2023-03-04T02:36:56;-0.20;99.90
21302;DHT22;10810;48.270;9.996;2023-03-04T02:39:28;-0.60;99.90
21302;DHT22;10810;48.270;9.996;2023-03-04T02:42:01;-1.00;99.90
21302;DHT22;10810;48.270;9.996;2023-03-04T02:44:33;-0.90;99.90
21302;DHT22;10810;48.270;9.996;2023-03-04T02:47:04;-0.90;99.90
21302;DHT22;10810;48.270;9.996;2023-03-04T02:49:35;-0.50;99.90
21302;DHT22;10810;48.270;9.996;2023-03-04T02:52:05;-1.20;99.90
21302;DHT22;10810;48.270;9.996;2023-03-04T02:54:34;-1.30;99.90
21302;DHT22;10810;48.270;9.996;2023-03-04T02:57:04;-1.10;99.90
21302;DHT22;10810;48.270;9.996;2023-03-04T03:03:03;-1.30;99.90
21302;DHT22;10810;48.270;9.996;2023-03-04T03:05:52;-0.40;99.90
21302;DHT22;10810;48.270;9.996;2023-03-04T03:08:47;-1.80;99.90
21302;DHT22;10810;48.270;9.996;2023-03-04T03:11:31;-1.10;99.90
21302;DHT22;10810;48.270;9.996;2023-03-04T03:14:10;-1.20;99.90
21302;DHT22;10810;48.270;9.996;2023-03-04T03:16:51;0.40;99.90
21302;DHT22;10810;48.270;9.996;2023-03-04T03:19:36;-2.40;99.90
21302;DHT22;10810;48.270;9.996;2023-03-04T03:22:04;-1.30;99.90
21302;DHT22;10810;48.270;9.996;2023-03-04T03:24:37;-1.00;99.90
21302;DHT22;10810;48.270;9.996;2023-03-04T03:27:08;-0.80;99.90
21302;DHT22;10810;48.270;9.996;2023-03-04T03:30:11;-1.20;99.90
21302;DHT22;10810;48.270;9.996;2023-03-04T03:33:05;-1.30;99.90
21302;DHT22;10810;48.270;9.996;2023-03-04T03:36:00;-1.30;99.90
21302;DHT22;10810;48.270;9.996;2023-03-04T03:39:01;-1.30;99.90
21302;DHT22;10810;48.270;9.996;2023-03-04T03:41:56;-1.20;99.90
21302;DHT22;10810;48.270;9.996;2023-03-04T03:44:48;-0.70;99.90
21302;DHT22;10810;48.270;9.996;2023-03-04T03:51:31;-1.40;99.90
21302;DHT22;10810;48.270;9.996;2023-03-04T03:54:02;-1.70;99.90
21302;DHT22;10810;48.270;9.996;2023-03-04T03:56:30;-0.10;99.90
21302;DHT22;10810;48.270;9.996;2023-03-04T03:59:04;-1.00;99.90
21302;DHT22;10810;48.270;9.996;2023-03-04T04:01:33;-0.30;99.90
21302;DHT22;10810;48.270;9.996;2023-03-04T04:04:05;-1.30;99.90
21302;DHT22;10810;48.270;9.996;2023-03-04T04:06:41;-2.10;99.90
21302;DHT22;10810;48.270;9.996;2023-03-04T04:09:34;-1.10;99.90
21302;DHT22;10810;48.270;9.996;2023-03-04T04:12:20;-1.40;99.90
21302;DHT22;10810;48.270;9.996;2023-03-04T04:14:52;-0.30;99.90
21302;DHT22;10810;48.270;9.996;2023-03-04T04:17:33;0.20;99.90
21302;DHT22;10810;48.270;9.996;2023-03-04T04:20:21;-1.10;99.90
21302;DHT22;10810;48.270;9.996;2023-03-04T04:23:25;0.00;99.90
21302;DHT22;10810;48.270;9.996;2023-03-04T04:26:28;-0.70;99.90
21302;DHT22;10810;48.270;9.996;2023-03-04T04:29:00;0.20;99.90
21302;DHT22;10810;48.270;9.996;2023-03-04T04:31:55;-1.30;99.90
21302;DHT22;10810;48.270;9.996;2023-03-04T04:34:52;-1.20;99.90
21302;DHT22;10810;48.270;9.996;2023-03-04T04:37:44;-0.80;99.90
21302;DHT22;10810;48.270;9.996;2023-03-04T04:44:43;-2.60;99.90
21302;DHT22;10810;48.270;9.996;2023-03-04T04:47:38;-1.40;99.90
21302;DHT22;10810;48.270;9.996;2023-03-04T04:50:37;-0.80;99.90
21302;DHT22;10810;48.270;9.996;2023-03-04T04:53:27;-1.60;99.90
21302;DHT22;10810;48.270;9.996;2023-03-04T04:56:07;-2.00;99.90
21302;DHT22;10810;48.270;9.996;2023-03-04T04:58:52;-1.50;99.90
21302;DHT22;10810;48.270;9.996;2023-03-04T05:05:41;-1.40;99.90
21302;DHT22;10810;48.270;9.996;2023-03-04T05:08:49;-1.40;99.90
21302;DHT22;10810;48.270;9.996;2023-03-04T05:14:52;-0.50;99.90
21302;DHT22;10810;48.270;9.996;2023-03-04T05:20:07;-1.60;99.90
21302;DHT22;10810;48.270;9.996;2023-03-04T05:21:21;-1.70;99.90
21302;DHT22;10810;48.270;9.996;2023-03-04T05:34:00;-2.00;99.90
21302;DHT22;10810;48.270;9.996;2023-03-04T05:37:16;-1.30;99.90
21302;DHT22;10810;48.270;9.996;2023-03-04T05:40:08;-1.60;99.90
21302;DHT22;10810;48.270;9.996;2023-03-04T05:42:50;-1.60;99.90
21302;DHT22;10810;48.270;9.996;2023-03-04T05:45:31;-1.90;99.90
21302;DHT22;10810;48.270;9.996;2023-03-04T05:52:01;-2.00;99.90
21302;DHT22;10810;48.270;9.996;2023-03-04T05:55:11;-2.00;99.90
21302;DHT22;10810;48.270;9.996;2023-03-04T05:57:52;-1.60;99.90
21302;DHT22;10810;48.270;9.996;2023-03-04T06:00:27;-1.60;99.90
21302;DHT22;10810;48.270;9.996;2023-03-04T06:02:54;-2.00;99.90
21302;DHT22;10810;48.270;9.996;2023-03-04T06:05:22;-2.10;99.90
21302;DHT22;10810;48.270;9.996;2023-03-04T06:07:52;-2.00;99.90
21302;DHT22;10810;48.270;9.996;2023-03-04T06:10:20;-0.40;99.90
21302;DHT22;10810;48.270;9.996;2023-03-04T06:12:47;-1.40;99.90
21302;DHT22;10810;48.270;9.996;2023-03-04T06:15:14;-2.00;99.90
21302;DHT22;10810;48.270;9.996;2023-03-04T06:17:42;-1.30;99.90
21302;DHT22;10810;48.270;9.996;2023-03-04T06:20:11;-1.50;99.90
21302;DHT22;10810;48.270;9.996;2023-03-04T06:22:38;-2.00;99.90
21302;DHT22;10810;48.270;9.996;2023-03-04T06:25:07;-2.00;99.90
21302;DHT22;10810;48.270;9.996;2023-03-04T06:27:34;-1.90;99.90
21302;DHT22;10810;48.270;9.996;2023-03-04T06:30:08;-2.00;99.90
21302;DHT22;10810;48.270;9.996;2023-03-04T06:32:36;-2.00;99.90
21302;DHT22;10810;48.270;9.996;2023-03-04T06:35:03;-1.30;99.90
21302;DHT22;10810;48.270;9.996;2023-03-04T06:37:31;-1.80;99.90
21302;DHT22;10810;48.270;9.996;2023-03-04T06:39:58;-1.80;99.90
21302;DHT22;10810;48.270;9.996;2023-03-04T06:42:26;0.20;99.90
21302;DHT22;10810;48.270;9.996;2023-03-04T06:44:53;-1.60;99.90
21302;DHT22;10810;48.270;9.996;2023-03-04T06:47:20;-0.70;99.90
21302;DHT22;10810;48.270;9.996;2023-03-04T06:49:48;-2.30;99.90
21302;DHT22;10810;48.270;9.996;2023-03-04T06:52:15;-2.40;99.90
21302;DHT22;10810;48.270;9.996;2023-03-04T06:54:43;-2.30;99.90
21302;DHT22;10810;48.270;9.996;2023-03-04T06:57:10;-0.90;99.90
21302;DHT22;10810;48.270;9.996;2023-03-04T06:59:39;-2.20;99.90
21302;DHT22;10810;48.270;9.996;2023-03-04T07:02:10;-0.70;99.90
21302;DHT22;10810;48.270;9.996;2023-03-04T07:04:37;-0.40;99.90
21302;DHT22;10810;48.270;9.996;2023-03-04T07:07:04;-0.20;99.90
21302;DHT22;10810;48.270;9.996;2023-03-04T07:09:31;-1.40;99.90
21302;DHT22;10810;48.270;9.996;2023-03-04T07:11:58;-1.10;99.90
21302;DHT22;10810;48.270;9.996;2023-03-04T07:14:25;0.10;99.90
21302;DHT22;10810;48.270;9.996;2023-03-04T07:16:54;-0.30;99.90
21302;DHT22;10810;48.270;9.996;2023-03-04T07:19:22;0.50;99.90
21302;DHT22;10810;48.270;9.996;2023-03-04T07:21:49;-0.70;99.90
21302;DHT22;10810;48.270;9.996;2023-03-04T07:24:16;0.20;99.90
21302;DHT22;10810;48.270;9.996;2023-03-04T07:26:45;-0.60;99.90
21302;DHT22;10810;48.270;9.996;2023-03-04T07:29:12;0.60;99.90
21302;DHT22;10810;48.270;9.996;2023-03-04T07:31:39;-0.10;99.90
21302;DHT22;10810;48.270;9.996;2023-03-04T07:34:12;1.00;99.90
21302;DHT22;10810;48.270;9.996;2023-03-04T07:36:41;0.10;99.90
21302;DHT22;10810;48.270;9.996;2023-03-04T07:39:10;0.70;99.90
21302;DHT22;10810;48.270;9.996;2023-03-04T07:41:39;1.30;99.90
21302;DHT22;10810;48.270;9.996;2023-03-04T07:44:08;0.90;99.90
21302;DHT22;10810;48.270;9.996;2023-03-04T07:46:36;-0.50;99.90
21302;DHT22;10810;48.270;9.996;2023-03-04T07:49:03;0.70;99.90
21302;DHT22;10810;48.270;9.996;2023-03-04T07:51:31;-0.20;99.90
21302;DHT22;10810;48.270;9.996;2023-03-04T07:54:00;1.20;99.90
21302;DHT22;10810;48.270;9.996;2023-03-04T07:56:45;0.20;99.90
21302;DHT22;10810;48.270;9.996;2023-03-04T07:59:18;1.30;99.90
21302;DHT22;10810;48.270;9.996;2023-03-04T08:01:47;0.40;99.90
21302;DHT22;10810;48.270;9.996;2023-03-04T08:04:16;0.90;99.90
21302;DHT22;10810;48.270;9.996;2023-03-04T08:06:45;1.40;99.90
21302;DHT22;10810;48.270;9.996;2023-03-04T08:09:13;1.30;99.90
21302;DHT22;10810;48.270;9.996;2023-03-04T08:11:58;1.50;99.90
21302;DHT22;10810;48.270;9.996;2023-03-04T08:14:29;1.50;99.90
21302;DHT22;10810;48.270;9.996;2023-03-04T08:17:07;0.70;99.90
21302;DHT22;10810;48.270;9.996;2023-03-04T08:19:55;1.90;99.90
21302;DHT22;10810;48.270;9.996;2023-03-04T08:22:28;1.00;99.90
21302;DHT22;10810;48.270;9.996;2023-03-04T08:25:02;1.90;99.90
21302;DHT22;10810;48.270;9.996;2023-03-04T08:27:32;0.90;99.90
21302;DHT22;10810;48.270;9.996;2023-03-04T08:30:14;1.70;99.90
21302;DHT22;10810;48.270;9.996;2023-03-04T08:32:43;1.10;99.90
21302;DHT22;10810;48.270;9.996;2023-03-04T08:35:18;1.80;99.90
21302;DHT22;10810;48.270;9.996;2023-03-04T08:38:00;1.30;99.90
21302;DHT22;10810;48.270;9.996;2023-03-04T08:43:56;1.70;99.90
21302;DHT22;10810;48.270;9.996;2023-03-04T08:46:54;0.80;99.90
21302;DHT22;10810;48.270;9.996;2023-03-04T08:49:26;1.70;99.90
21302;DHT22;10810;48.270;9.996;2023-03-04T08:51:54;2.00;99.90
21302;DHT22;10810;48.270;9.996;2023-03-04T08:54:41;2.20;99.90
21302;DHT22;10810;48.270;9.996;2023-03-04T08:57:25;2.40;99.90
21302;DHT22;10810;48.270;9.996;2023-03-04T08:59:52;2.30;99.90
21302;DHT22;10810;48.270;9.996;2023-03-04T09:02:46;2.40;99.90
21302;DHT22;10810;48.270;9.996;2023-03-04T09:05:15;2.40;99.90
21302;DHT22;10810;48.270;9.996;2023-03-04T09:07:43;2.50;99.90
21302;DHT22;10810;48.270;9.996;2023-03-04T09:10:13;2.60;99.90
21302;DHT22;10810;48.270;9.996;2023-03-04T09:13:05;2.60;99.90
21302;DHT22;10810;48.270;9.996;2023-03-04T09:15:34;2.60;99.90
21302;DHT22;10810;48.270;9.996;2023-03-04T09:18:14;2.90;99.90
21302;DHT22;10810;48.270;9.996;2023-03-04T09:20:46;3.00;99.90
21302;DHT22;10810;48.270;9.996;2023-03-04T09:23:28;3.00;99.90
21302;DHT22;10810;48.270;9.996;2023-03-04T09:26:12;3.10;99.90
21302;DHT22;10810;48.270;9.996;2023-03-04T09:28:49;3.10;99.90
21302;DHT22;10810;48.270;9.996;2023-03-04T09:31:19;3.10;99.90
21302;DHT22;10810;48.270;9.996;2023-03-04T09:33:52;3.20;99.90
21302;DHT22;10810;48.270;9.996;2023-03-04T09:36:20;3.30;99.90
21302;DHT22;10810;48.270;9.996;2023-03-04T09:38:58;3.30;99.90
21302;DHT22;10810;48.270;9.996;2023-03-04T09:41:33;3.30;99.90
21302;DHT22;10810;48.270;9.996;2023-03-04T09:44:05;3.30;99.90
21302;DHT22;10810;48.270;9.996;2023-03-04T09:46:36;3.50;99.90
21302;DHT22;10810;48.270;9.996;2023-03-04T09:49:08;3.60;99.90
21302;DHT22;10810;48.270;9.996;2023-03-04T09:51:50;3.70;99.90
21302;DHT22;10810;48.270;9.996;2023-03-04T09:54:30;3.60;99.90
21302;DHT22;10810;48.270;9.996;2023-03-04T09:57:19;3.70;99.90
21302;DHT22;10810;48.270;9.996;2023-03-04T09:59:51;3.90;99.90
21302;DHT22;10810;48.270;9.996;2023-03-04T10:02:28;4.00;99.90
21302;DHT22;10810;48.270;9.996;2023-03-04T10:05:03;4.10;99.90
21302;DHT22;10810;48.270;9.996;2023-03-04T10:08:11;4.00;99.90
21302;DHT22;10810;48.270;9.996;2023-03-04T10:10:48;4.30;99.90
21302;DHT22;10810;48.270;9.996;2023-03-04T10:13:24;4.10;99.90
21302;DHT22;10810;48.270;9.996;2023-03-04T10:15:57;4.10;99.90
21302;DHT22;10810;48.270;9.996;2023-03-04T10:18:29;4.20;99.90
21302;DHT22;10810;48.270;9.996;2023-03-04T10:21:03;4.20;99.90
21302;DHT22;10810;48.270;9.996;2023-03-04T10:23:34;4.30;99.90
21302;DHT22;10810;48.270;9.996;2023-03-04T10:26:11;4.40;99.90
21302;DHT22;10810;48.270;9.996;2023-03-04T10:28:40;4.30;99.90
21302;DHT22;10810;48.270;9.996;2023-03-04T10:31:11;4.30;99.90
21302;DHT22;10810;48.270;9.996;2023-03-04T10:33:41;4.50;99.90
21302;DHT22;10810;48.270;9.996;2023-03-04T10:36:22;4.50;99.90
21302;DHT22;10810;48.270;9.996;2023-03-04T10:38:54;4.50;99.90
21302;DHT22;10810;48.270;9.996;2023-03-04T10:41:29;4.70;99.90
21302;DHT22;10810;48.270;9.996;2023-03-04T10:47:36;4.80;99.90
21302;DHT22;10810;48.270;9.996;2023-03-04T10:50:41;4.90;99.90
21302;DHT22;10810;48.270;9.996;2023-03-04T10:53:55;5.00;99.90
21302;DHT22;10810;48.270;9.996;2023-03-04T10:56:51;5.00;99.90
21302;DHT22;10810;48.270;9.996;2023-03-04T10:59:49;5.00;99.90
21302;DHT22;10810;48.270;9.996;2023-03-04T11:02:25;5.10;99.90
21302;DHT22;10810;48.270;9.996;2023-03-04T11:05:04;5.10;99.90
21302;DHT22;10810;48.270;9.996;2023-03-04T11:07:38;5.10;99.90
21302;DHT22;10810;48.270;9.996;2023-03-04T11:11:01;5.20;99.90
21302;DHT22;10810;48.270;9.996;2023-03-04T11:13:37;5.20;99.90
21302;DHT22;10810;48.270;9.996;2023-03-04T11:16:26;5.30;99.90
21302;DHT22;10810;48.270;9.996;2023-03-04T11:25:32;5.40;99.90
21302;DHT22;10810;48.270;9.996;2023-03-04T11:28:02;4.90;99.90
21302;DHT22;10810;48.270;9.996;2023-03-04T11:30:40;5.30;99.90
21302;DHT22;10810;48.270;9.996;2023-03-04T11:33:59;5.30;99.90
21302;DHT22;10810;48.270;9.996;2023-03-04T11:36:30;5.40;99.90
21302;DHT22;10810;48.270;9.996;2023-03-04T11:39:13;5.50;99.90
21302;DHT22;10810;48.270;9.996;2023-03-04T11:42:04;5.40;99.90
21302;DHT22;10810;48.270;9.996;2023-03-04T11:44:39;5.40;99.90
21302;DHT22;10810;48.270;9.996;2023-03-04T11:47:28;5.40;99.90
21302;DHT22;10810;48.270;9.996;2023-03-04T11:50:33;5.40;99.90
21302;DHT22;10810;48.270;9.996;2023-03-04T11:53:30;5.50;99.90
21302;DHT22;10810;48.270;9.996;2023-03-04T11:56:26;5.40;99.90
21302;DHT22;10810;48.270;9.996;2023-03-04T11:59:16;5.40;99.90
21302;DHT22;10810;48.270;9.996;2023-03-04T12:02:17;5.40;99.90
21302;DHT22;10810;48.270;9.996;2023-03-04T12:05:10;5.40;99.90
21302;DHT22;10810;48.270;9.996;2023-03-04T12:08:07;5.40;99.90
21302;DHT22;10810;48.270;9.996;2023-03-04T12:10:55;5.40;99.90
21302;DHT22;10810;48.270;9.996;2023-03-04T12:16:39;5.40;99.90
21302;DHT22;10810;48.270;9.996;2023-03-04T12:19:22;5.30;99.90
21302;DHT22;10810;48.270;9.996;2023-03-04T12:22:24;5.30;99.90
21302;DHT22;10810;48.270;9.996;2023-03-04T12:25:33;5.30;99.90
21302;DHT22;10810;48.270;9.996;2023-03-04T12:28:17;5.30;99.90
21302;DHT22;10810;48.270;9.996;2023-03-04T12:31:01;5.20;99.90
21302;DHT22;10810;48.270;9.996;2023-03-04T12:33:37;5.20;99.90
21302;DHT22;10810;48.270;9.996;2023-03-04T12:36:14;5.20;99.90
21302;DHT22;10810;48.270;9.996;2023-03-04T12:38:58;5.10;99.90
21302;DHT22;10810;48.270;9.996;2023-03-04T12:41:33;5.10;99.90
21302;DHT22;10810;48.270;9.996;2023-03-04T12:44:13;5.10;99.90
21302;DHT22;10810;48.270;9.996;2023-03-04T12:46:54;5.10;99.90
21302;DHT22;10810;48.270;9.996;2023-03-04T12:49:43;5.10;99.90
21302;DHT22;10810;48.270;9.996;2023-03-04T12:52:17;5.20;99.90
21302;DHT22;10810;48.270;9.996;2023-03-04T12:54:49;5.20;99.90
21302;DHT22;10810;48.270;9.996;2023-03-04T12:57:18;5.20;99.90
21302;DHT22;10810;48.270;9.996;2023-03-04T12:59:55;5.30;99.90
21302;DHT22;10810;48.270;9.996;2023-03-04T13:02:41;5.30;99.90
21302;DHT22;10810;48.270;9.996;2023-03-04T13:05:32;5.20;99.90
21302;DHT22;10810;48.270;9.996;2023-03-04T13:08:10;5.10;99.90
21302;DHT22;10810;48.270;9.996;2023-03-04T13:10:39;5.20;99.90
21302;DHT22;10810;48.270;9.996;2023-03-04T13:13:36;5.20;99.90
21302;DHT22;10810;48.270;9.996;2023-03-04T13:16:04;5.20;99.90
21302;DHT22;10810;48.270;9.996;2023-03-04T13:18:34;5.20;99.90
21302;DHT22;10810;48.270;9.996;2023-03-04T13:21:19;5.20;99.90
21302;DHT22;10810;48.270;9.996;2023-03-04T13:23:47;5.20;99.90
21302;DHT22;10810;48.270;9.996;2023-03-04T13:26:21;5.20;99.90
21302;DHT22;10810;48.270;9.996;2023-03-04T13:29:08;5.10;99.90
21302;DHT22;10810;48.270;9.996;2023-03-04T13:31:56;5.10;99.90
21302;DHT22;10810;48.270;9.996;2023-03-04T13:34:42;5.00;99.90
21302;DHT22;10810;48.270;9.996;2023-03-04T13:37:26;5.10;99.90
21302;DHT22;10810;48.270;9.996;2023-03-04T13:42:54;5.10;99.90
21302;DHT22;10810;48.270;9.996;2023-03-04T13:45:35;5.00;99.90
21302;DHT22;10810;48.270;9.996;2023-03-04T13:48:07;5.00;99.90
21302;DHT22;10810;48.270;9.996;2023-03-04T13:50:47;4.90;99.90
21302;DHT22;10810;48.270;9.996;2023-03-04T13:53:39;4.90;99.90
21302;DHT22;10810;48.270;9.996;2023-03-04T13:56:23;5.00;99.90
21302;DHT22;10810;48.270;9.996;2023-03-04T13:58:52;5.00;99.90
21302;DHT22;10810;48.270;9.996;2023-03-04T14:01:32;5.00;99.90
21302;DHT22;10810;48.270;9.996;2023-03-04T14:04:00;5.00;99.90
21302;DHT22;10810;48.270;9.996;2023-03-04T14:06:28;4.90;99.90
21302;DHT22;10810;48.270;9.996;2023-03-04T14:08:56;4.80;99.90
21302;DHT22;10810;48.270;9.996;2023-03-04T14:11:26;4.90;99.90
21302;DHT22;10810;48.270;9.996;2023-03-04T14:13:55;4.90;99.90
21302;DHT22;10810;48.270;9.996;2023-03-04T14:16:26;4.90;99.90
21302;DHT22;10810;48.270;9.996;2023-03-04T14:19:00;4.80;99.90
21302;DHT22;10810;48.270;9.996;2023-03-04T14:21:29;4.80;99.90
21302;DHT22;10810;48.270;9.996;2023-03-04T14:24:03;4.90;99.90
21302;DHT22;10810;48.270;9.996;2023-03-04T14:26:30;4.80;99.90
21302;DHT22;10810;48.270;9.996;2023-03-04T14:28:58;4.80;99.90
21302;DHT22;10810;48.270;9.996;2023-03-04T14:31:28;4.60;99.90
21302;DHT22;10810;48.270;9.996;2023-03-04T14:33:58;4.70;99.90
21302;DHT22;10810;48.270;9.996;2023-03-04T14:36:30;4.70;99.90
21302;DHT22;10810;48.270;9.996;2023-03-04T14:39:04;4.70;99.90
21302;DHT22;10810;48.270;9.996;2023-03-04T14:41:33;4.60;99.90
21302;DHT22;10810;48.270;9.996;2023-03-04T14:44:28;4.60;99.90
21302;DHT22;10810;48.270;9.996;2023-03-04T14:47:06;4.60;99.90
21302;DHT22;10810;48.270;9.996;2023-03-04T14:49:37;4.40;99.90
21302;DHT22;10810;48.270;9.996;2023-03-04T14:52:05;4.30;99.90
21302;DHT22;10810;48.270;9.996;2023-03-04T14:54:34;4.40;99.90
21302;DHT22;10810;48.270;9.996;2023-03-04T14:57:21;4.60;99.90
21302;DHT22;10810;48.270;9.996;2023-03-04T14:59:51;4.80;99.90
21302;DHT22;10810;48.270;9.996;2023-03-04T15:02:23;4.70;99.90
21302;DHT22;10810;48.270;9.996;2023-03-04T15:04:58;4.80;99.90
21302;DHT22;10810;48.270;9.996;2023-03-04T15:07:30;4.70;99.90
21302;DHT22;10810;48.270;9.996;2023-03-04T15:09:58;4.70;99.90
21302;DHT22;10810;48.270;9.996;2023-03-04T15:12:28;4.60;99.90
21302;DHT22;10810;48.270;9.996;2023-03-04T15:14:57;4.60;99.90
21302;DHT22;10810;48.270;9.996;2023-03-04T15:17:30;4.50;99.90
21302;DHT22;10810;48.270;9.996;2023-03-04T15:20:23;4.60;99.90
21302;DHT22;10810;48.270;9.996;2023-03-04T15:22:58;4.70;99.90
21302;DHT22;10810;48.270;9.996;2023-03-04T15:25:26;4.60;99.90
21302;DHT22;10810;48.270;9.996;2023-03-04T15:27:58;4.50;99.90
21302;DHT22;10810;48.270;9.996;2023-03-04T15:30:26;4.40;99.90
21302;DHT22;10810;48.270;9.996;2023-03-04T15:32:55;4.40;99.90
21302;DHT22;10810;48.270;9.996;2023-03-04T15:35:26;4.30;99.90
21302;DHT22;10810;48.270;9.996;2023-03-04T15:37:55;4.30;99.90
21302;DHT22;10810;48.270;9.996;2023-03-04T15:40:27;4.20;99.90
21302;DHT22;10810;48.270;9.996;2023-03-04T15:42:56;4.10;99.90
21302;DHT22;10810;48.270;9.996;2023-03-04T15:45:26;3.80;99.90
21302;DHT22;10810;48.270;9.996;2023-03-04T15:47:53;3.60;99.90
21302;DHT22;10810;48.270;9.996;2023-03-04T15:50:21;3.40;99.90
21302;DHT22;10810;48.270;9.996;2023-03-04T15:52:56;3.10;99.90
21302;DHT22;10810;48.270;9.996;2023-03-04T15:55:27;3.10;99.90
21302;DHT22;10810;48.270;9.996;2023-03-04T15:57:56;3.00;99.90
21302;DHT22;10810;48.270;9.996;2023-03-04T16:00:23;3.00;99.90
21302;DHT22;10810;48.270;9.996;2023-03-04T16:02:50;2.90;99.90
21302;DHT22;10810;48.270;9.996;2023-03-04T16:05:18;2.80;99.90
21302;DHT22;10810;48.270;9.996;2023-03-04T16:07:48;2.70;99.90
21302;DHT22;10810;48.270;9.996;2023-03-04T16:10:20;2.50;99.90
21302;DHT22;10810;48.270;9.996;2023-03-04T16:13:07;2.60;99.90
21302;DHT22;10810;48.270;9.996;2023-03-04T16:15:39;2.60;99.90
21302;DHT22;10810;48.270;9.996;2023-03-04T16:18:12;2.50;99.90
21302;DHT22;10810;48.270;9.996;2023-03-04T16:20:52;2.50;99.90
21302;DHT22;10810;48.270;9.996;2023-03-04T16:23:22;2.40;99.90
21302;DHT22;10810;48.270;9.996;2023-03-04T16:26:04;2.60;99.90
21302;DHT22;10810;48.270;9.996;2023-03-04T16:28:47;2.20;99.90
21302;DHT22;10810;48.270;9.996;2023-03-04T16:31:24;2.30;99.90
21302;DHT22;10810;48.270;9.996;2023-03-04T16:33:58;2.30;99.90
21302;DHT22;10810;48.270;9.996;2023-03-04T16:36:28;2.30;99.90
21302;DHT22;10810;48.270;9.996;2023-03-04T16:38:57;2.30;99.90
21302;DHT22;10810;48.270;9.996;2023-03-04T16:41:30;2.40;99.90
21302;DHT22;10810;48.270;9.996;2023-03-04T16:43:58;2.10;99.90
21302;DHT22;10810;48.270;9.996;2023-03-04T16:46:25;2.20;99.90
21302;DHT22;10810;48.270;9.996;2023-03-04T16:48:52;2.10;99.90
21302;DHT22;10810;48.270;9.996;2023-03-04T16:51:20;2.10;99.90
21302;DHT22;10810;48.270;9.996;2023-03-04T16:53:53;2.10;99.90
21302;DHT22;10810;48.270;9.996;2023-03-04T16:56:24;2.20;99.90
21302;DHT22;10810;48.270;9.996;2023-03-04T16:58:53;2.10;99.90
21302;DHT22;10810;48.270;9.996;2023-03-04T17:01:22;2.20;99.90
21302;DHT22;10810;48.270;9.996;2023-03-04T17:03:50;1.90;99.90
21302;DHT22;10810;48.270;9.996;2023-03-04T17:06:17;2.00;99.90
21302;DHT22;10810;48.270;9.996;2023-03-04T17:08:47;2.50;99.90
21302;DHT22;10810;48.270;9.996;2023-03-04T17:11:18;1.60;99.90
21302;DHT22;10810;48.270;9.996;2023-03-04T17:14:13;1.50;99.90
21302;DHT22;10810;48.270;9.996;2023-03-04T17:17:20;1.60;99.90
21302;DHT22;10810;48.270;9.996;2023-03-04T17:21:18;1.40;99.90
21302;DHT22;10810;48.270;9.996;2023-03-04T17:23:25;1.70;99.90
21302;DHT22;10810;48.270;9.996;2023-03-04T17:26:02;1.40;99.90
21302;DHT22;10810;48.270;9.996;2023-03-04T17:28:51;1.40;99.90
21302;DHT22;10810;48.270;9.996;2023-03-04T17:31:42;1.00;99.90
21302;DHT22;10810;48.270;9.996;2023-03-04T17:34:13;1.40;99.90
21302;DHT22;10810;48.270;9.996;2023-03-04T17:39:51;1.30;99.90